X  Close Metar Aviation Weather Data     KILM Wilmington International Airport
Temperature
70°F Temperature
66°F Dewpoint
88% Humidity



Wind
35 MPH
56 KM/H
16 M/S
30 KTS



30°
NNE
Current Conditions

Light Rain, Mist Light Rain, Mist
Pressure 1002.72 (hPa) - 29.61 (inHg)
Visibility 2.5 (mile) - 4 (km)
Airport
Airport-code KILM

Location: Wilmington International Airport
Distance: 10 (mi)

Metar:
KILM 301553Z 03030G37KT 2 1/2SM R35/5000VP6000FT -RA BR BKN008 OVC020 21/19 A2961 RMK AO2 PK WND 03037/1553 SLP027 P0010 T02060194

Time: 2022-09-30 11:53 EDT